Time;durP1;ratioP1;P1;durP2;ratioP2;P2;SDS_P1;SDS_P2;PMS_P1;PMS_P2;Temp;Humidity;BMP_temperature;BMP_pressure;BME280_temperature;BME280_humidity;BME280_pressure;Samples;Min_cycle;Max_cycle;Signal;HPM_P1;HPM_P2
2021/12/26 00:01:15;;;;;;;3.57;3.00;;;;;;;-8.73;64.05;101056.59;5049911;28;20416;-69
2021/12/26 00:03:42;;;;;;;10.52;3.75;;;;;;;-8.69;64.12;101041.50;5049878;28;20091;-69
2021/12/26 00:06:12;;;;;;;11.10;4.18;;;;;;;-8.74;62.80;101049.78;5049789;28;20065;-69
2021/12/26 00:08:40;;;;;;;6.53;3.53;;;;;;;-8.67;62.35;101044.06;5049518;28;20067;-69
2021/12/26 00:11:07;;;;;;;15.18;5.75;;;;;;;-8.65;62.28;101045.00;5049864;28;20488;-69
2021/12/26 00:13:35;;;;;;;10.40;5.20;;;;;;;-8.80;63.17;101047.94;5049006;28;20111;-69
2021/12/26 00:16:02;;;;;;;11.52;4.82;;;;;;;-8.69;63.08;101045.72;5050424;28;20107;-69
2021/12/26 00:18:29;;;;;;;13.43;4.63;;;;;;;-8.66;62.78;101046.66;5050057;28;20529;-69
2021/12/26 00:20:55;;;;;;;8.40;2.95;;;;;;;-8.67;63.22;101047.47;5050362;28;20119;-69
2021/12/26 00:23:22;;;;;;;12.18;3.80;;;;;;;-8.81;63.11;101045.34;5049451;28;20065;-69
2021/12/26 00:25:50;;;;;;;10.02;4.15;;;;;;;-8.75;62.21;101040.41;5048648;28;20041;-69
2021/12/26 00:28:16;;;;;;;13.30;5.20;;;;;;;-8.79;62.39;101031.84;5048606;28;21072;-69
2021/12/26 00:30:45;;;;;;;8.65;3.45;;;;;;;-8.66;62.27;101025.47;5049530;28;20405;-69
2021/12/26 00:33:11;;;;;;;7.13;3.42;;;;;;;-8.79;62.67;101026.75;5048822;28;20135;-69
2021/12/26 00:35:38;;;;;;;4.10;2.90;;;;;;;-8.88;63.07;101029.91;5047441;28;20452;-69
2021/12/26 00:38:04;;;;;;;7.85;3.50;;;;;;;-8.81;63.16;101028.41;5048990;28;20469;-67
2021/12/26 00:40:32;;;;;;;4.43;2.55;;;;;;;-8.80;63.65;101031.81;5040038;28;20574;-67
2021/12/26 00:42:58;;;;;;;5.30;2.80;;;;;;;-8.85;63.92;101023.19;5048074;28;20120;-68
2021/12/26 00:45:25;;;;;;;7.25;2.85;;;;;;;-8.83;63.94;101026.66;5051327;28;20048;-68
2021/12/26 00:47:53;;;;;;;4.75;2.97;;;;;;;-8.85;63.80;101031.66;5046829;28;20057;-68
2021/12/26 00:50:26;;;;;;;8.02;3.13;;;;;;;-8.98;63.87;101027.03;5049417;28;20367;-68
2021/12/26 00:52:53;;;;;;;5.65;2.70;;;;;;;-8.94;64.08;101032.25;5048364;28;20037;-68
2021/12/26 00:55:19;;;;;;;7.85;2.78;;;;;;;-9.00;64.27;101034.59;5046555;28;20507;-68
2021/12/26 00:57:46;;;;;;;6.43;2.95;;;;;;;-9.05;63.98;101036.13;5045528;28;20041;-69
2021/12/26 01:00:15;;;;;;;9.30;3.30;;;;;;;-9.36;64.84;101033.44;5044521;28;20079;-69
2021/12/26 01:02:42;;;;;;;3.90;2.53;;;;;;;-9.39;65.16;101038.41;5043909;28;20093;-69
2021/12/26 01:05:11;;;;;;;7.07;2.42;;;;;;;-9.29;65.18;101037.03;5045101;28;20782;-69
2021/12/26 01:07:47;;;;;;;7.03;3.17;;;;;;;-9.25;64.92;101044.78;5046211;28;20064;-69
2021/12/26 01:10:16;;;;;;;5.70;2.78;;;;;;;-9.20;64.95;101034.78;5041248;28;20123;-69
2021/12/26 01:12:43;;;;;;;5.80;2.85;;;;;;;-9.17;64.63;101033.22;5050886;28;20094;-69
2021/12/26 01:15:11;;;;;;;12.82;3.38;;;;;;;-9.11;64.13;101030.00;5046765;28;20049;-69
2021/12/26 01:17:39;;;;;;;3.25;2.35;;;;;;;-9.07;64.11;101032.69;5044753;28;20048;-69
2021/12/26 01:20:09;;;;;;;4.30;2.67;;;;;;;-9.07;64.15;101027.59;5046761;28;20049;-69
2021/12/26 01:22:38;;;;;;;3.97;2.85;;;;;;;-9.05;63.87;101025.97;5046114;28;20045;-69
2021/12/26 01:25:06;;;;;;;5.95;2.80;;;;;;;-9.06;62.69;101033.56;5048116;28;20411;-69
2021/12/26 01:27:33;;;;;;;3.15;2.55;;;;;;;-9.12;62.35;101034.19;5048496;28;20087;-69
2021/12/26 01:30:00;;;;;;;7.32;2.92;;;;;;;-9.07;62.26;101031.81;5048430;28;20498;-69
2021/12/26 01:32:27;;;;;;;4.90;2.70;;;;;;;-9.15;62.80;101033.25;5047464;28;20053;-69
2021/12/26 01:34:53;;;;;;;6.20;2.80;;;;;;;-9.21;62.75;101040.69;5045779;28;20071;-69
2021/12/26 01:37:21;;;;;;;5.03;2.85;;;;;;;-9.22;62.89;101041.47;5048312;28;20064;-69
2021/12/26 01:39:48;;;;;;;6.72;2.47;;;;;;;-9.45;65.15;101040.72;5046593;28;20183;-69
2021/12/26 01:42:15;;;;;;;5.55;3.53;;;;;;;-9.32;65.02;101039.47;5048666;28;20045;-69
2021/12/26 01:44:41;;;;;;;7.15;2.78;;;;;;;-9.48;64.34;101036.41;5048677;28;20094;-69
2021/12/26 01:47:09;;;;;;;4.68;2.60;;;;;;;-9.24;63.96;101033.84;5048514;28;20044;-69
2021/12/26 01:49:36;;;;;;;5.38;2.40;;;;;;;-9.10;63.32;101026.66;5048898;28;20056;-69
2021/12/26 01:52:06;;;;;;;5.60;3.00;;;;;;;-9.14;63.16;101034.97;5048444;28;20037;-69
2021/12/26 01:54:38;;;;;;;5.15;2.88;;;;;;;-9.20;63.27;101030.56;5049002;28;20040;-69
2021/12/26 01:57:09;;;;;;;4.47;2.92;;;;;;;-9.27;63.09;101031.16;5048037;28;20041;-69
2021/12/26 01:59:36;;;;;;;5.15;2.75;;;;;;;-9.28;62.73;101032.00;5048755;28;20136;-69
2021/12/26 02:02:03;;;;;;;5.63;2.47;;;;;;;-9.32;62.82;101035.25;5048619;28;20100;-69
2021/12/26 02:04:30;;;;;;;4.20;2.45;;;;;;;-9.34;62.59;101043.63;5047159;28;20045;-69
2021/12/26 02:06:57;;;;;;;4.13;2.78;;;;;;;-9.47;61.95;101039.81;5048823;28;20048;-69
2021/12/26 02:09:23;;;;;;;8.13;3.05;;;;;;;-9.39;61.92;101038.41;5048509;28;20463;-69
2021/12/26 02:11:50;;;;;;;9.55;3.17;;;;;;;-9.35;62.34;101040.25;5048502;28;20142;-69
2021/12/26 02:14:17;;;;;;;5.93;3.17;;;;;;;-9.56;62.99;101040.38;5048472;28;20049;-69
2021/12/26 02:16:44;;;;;;;5.50;3.00;;;;;;;-9.53;63.56;101048.09;5048795;28;20040;-68
2021/12/26 02:19:10;;;;;;;6.35;3.13;;;;;;;-9.61;64.03;101043.59;5048410;28;20071;-68
2021/12/26 02:21:58;;;;;;;4.68;2.55;;;;;;;-9.65;63.95;101044.28;5047129;28;20102;-68
2021/12/26 02:24:29;;;;;;;6.65;2.30;;;;;;;-9.61;63.55;101035.97;5044756;28;20042;-68
2021/12/26 02:29:40;;;;;;;8.77;3.30;;;;;;;-9.47;63.24;101030.53;5047880;28;20051;-68
2021/12/26 02:32:07;;;;;;;6.57;3.72;;;;;;;-9.47;62.59;101029.69;5048793;28;20045;-68
2021/12/26 02:34:34;;;;;;;6.65;2.55;;;;;;;-9.41;62.37;101029.88;5052137;28;20134;-68
2021/12/26 02:37:02;;;;;;;4.65;2.95;;;;;;;-9.55;62.15;101020.94;5036122;28;20042;-68
2021/12/26 02:39:29;;;;;;;4.10;2.88;;;;;;;-9.39;61.79;101028.25;5032539;28;20069;-68
2021/12/26 02:41:55;;;;;;;7.18;3.83;;;;;;;-9.59;61.67;101034.34;5032782;28;20046;-68
2021/12/26 02:44:22;;;;;;;12.50;2.50;;;;;;;-9.53;62.12;101021.84;5049394;28;20065;-68
2021/12/26 02:46:48;;;;;;;3.83;2.58;;;;;;;-9.51;61.92;101032.91;5051968;28;20072;-68
2021/12/26 02:49:14;;;;;;;8.60;3.22;;;;;;;-9.74;63.11;101033.81;5051928;28;20125;-68
2021/12/26 02:51:41;;;;;;;10.38;3.05;;;;;;;-9.61;63.06;101026.69;5051592;28;20438;-68
2021/12/26 02:54:08;;;;;;;6.32;2.40;;;;;;;-9.68;62.64;101031.50;5051998;28;20049;-68
2021/12/26 02:56:35;;;;;;;3.63;2.40;;;;;;;-9.70;62.23;101033.97;5051774;28;20049;-69
2021/12/26 02:59:01;;;;;;;10.38;3.33;;;;;;;-9.69;62.07;101032.31;5051767;28;20091;-69
2021/12/26 03:01:29;;;;;;;4.32;2.42;;;;;;;-9.70;61.77;101036.50;5051929;28;20045;-69
2021/12/26 03:03:55;;;;;;;6.32;3.75;;;;;;;-9.80;63.18;101029.41;5051399;28;20047;-68
2021/12/26 03:06:28;;;;;;;5.88;2.75;;;;;;;-9.75;63.77;101032.94;5045504;28;20061;-68
2021/12/26 03:08:55;;;;;;;5.25;2.63;;;;;;;-9.60;62.89;101024.97;5031833;28;20498;-68
2021/12/26 03:11:23;;;;;;;5.30;3.10;;;;;;;-9.76;62.56;101035.44;5031921;28;20052;-68
2021/12/26 03:13:49;;;;;;;8.23;3.70;;;;;;;-9.76;61.86;101026.16;5042782;28;20497;-68
2021/12/26 03:16:16;;;;;;;4.78;2.80;;;;;;;-9.67;61.42;101023.06;5050592;28;20475;-68
2021/12/26 03:18:42;;;;;;;5.30;2.50;;;;;;;-9.59;61.08;101016.56;5051091;28;20045;-68
2021/12/26 03:21:09;;;;;;;6.72;3.55;;;;;;;-9.69;61.58;101014.53;5049988;28;20072;-68
2021/12/26 03:23:35;;;;;;;4.35;2.83;;;;;;;-9.65;61.25;101009.63;5051392;28;20121;-68
2021/12/26 03:26:05;;;;;;;3.65;2.63;;;;;;;-9.63;61.27;101009.66;5051435;28;20493;-68
2021/12/26 03:28:33;;;;;;;11.35;3.22;;;;;;;-9.73;61.72;101007.63;5051416;28;20075;-68
2021/12/26 03:31:00;;;;;;;12.48;3.13;;;;;;;-9.65;61.98;101013.84;5050701;28;20103;-68
2021/12/26 03:33:28;;;;;;;7.22;3.13;;;;;;;-9.71;62.31;101013.59;5049673;28;20464;-68
2021/12/26 03:35:55;;;;;;;5.20;3.47;;;;;;;-9.58;62.33;101013.22;5051662;28;20045;-68
2021/12/26 03:38:22;;;;;;;5.60;2.75;;;;;;;-9.70;62.56;101005.19;5049210;28;20110;-68
2021/12/26 03:40:49;;;;;;;7.20;3.63;;;;;;;-9.86;62.85;101012.28;5051399;28;20509;-68
2021/12/26 03:43:17;;;;;;;5.78;2.65;;;;;;;-9.72;63.16;101004.28;5050928;28;20073;-68
2021/12/26 03:45:48;;;;;;;8.25;3.95;;;;;;;-9.69;63.47;101004.38;5050623;28;20049;-69
2021/12/26 03:48:16;;;;;;;6.60;3.20;;;;;;;-9.60;63.18;101002.16;5034087;28;20080;-69
2021/12/26 03:50:43;;;;;;;11.10;3.85;;;;;;;-9.59;63.15;100998.81;5051023;28;20063;-69
2021/12/26 03:53:10;;;;;;;6.63;4.30;;;;;;;-9.54;63.38;100993.06;5050868;28;20107;-69
2021/12/26 03:55:37;;;;;;;5.75;2.97;;;;;;;-9.52;62.43;100999.06;5050383;28;20053;-69
2021/12/26 03:58:03;;;;;;;6.80;2.95;;;;;;;-9.66;63.20;100999.41;5050388;28;20077;-69
2021/12/26 04:00:30;;;;;;;12.77;3.97;;;;;;;-9.51;63.46;100992.31;5050835;28;20114;-69
2021/12/26 04:02:58;;;;;;;10.57;3.75;;;;;;;-9.56;63.16;100992.16;5048090;28;20428;-69
2021/12/26 04:05:25;;;;;;;4.78;3.55;;;;;;;-9.59;62.38;100999.66;5050440;28;20071;-69
2021/12/26 04:07:52;;;;;;;6.20;3.33;;;;;;;-9.64;62.44;100997.78;5050287;28;20430;-69
2021/12/26 04:10:20;;;;;;;7.97;3.08;;;;;;;-9.77;63.28;100998.19;5048954;28;20076;-69
2021/12/26 04:12:48;;;;;;;6.10;3.08;;;;;;;-9.64;62.41;100997.78;5049630;28;20061;-69
2021/12/26 04:15:19;;;;;;;11.63;3.20;;;;;;;-9.77;61.99;100999.06;5050382;28;20072;-69
2021/12/26 04:17:46;;;;;;;3.38;2.53;;;;;;;-9.76;62.68;100989.78;5050342;28;20370;-69
2021/12/26 04:20:14;;;;;;;7.30;3.42;;;;;;;-9.66;62.24;100986.72;5050594;28;20103;-70
2021/12/26 04:22:40;;;;;;;9.60;3.47;;;;;;;-10.22;64.55;100998.34;5050174;28;20068;-69
2021/12/26 04:25:07;;;;;;;4.65;3.10;;;;;;;-10.13;64.95;101001.19;5049090;28;20068;-69
2021/12/26 04:27:34;;;;;;;8.45;3.97;;;;;;;-10.01;63.64;101000.72;5050096;28;20067;-69
2021/12/26 04:30:00;;;;;;;12.18;3.70;;;;;;;-10.15;64.39;101004.50;5048362;28;20049;-69
2021/12/26 04:32:27;;;;;;;8.90;3.45;;;;;;;-10.00;63.40;101005.88;5046254;28;20575;-69
2021/12/26 04:34:53;;;;;;;10.63;3.40;;;;;;;-9.98;62.88;101003.41;5047897;28;20045;-69
2021/12/26 04:37:21;;;;;;;11.95;3.72;;;;;;;-10.00;63.52;101008.41;5033031;28;20077;-69
2021/12/26 04:39:47;;;;;;;8.60;3.28;;;;;;;-10.08;63.49;101006.41;5027727;28;20195;-69
2021/12/26 04:42:14;;;;;;;5.90;2.90;;;;;;;-10.06;62.47;101005.69;5027806;28;20072;-69
2021/12/26 04:44:40;;;;;;;6.38;2.97;;;;;;;-10.05;61.60;101002.31;5034313;28;20503;-69
2021/12/26 04:47:07;;;;;;;9.52;3.08;;;;;;;-10.09;61.71;100997.97;5049548;28;20115;-69
2021/12/26 04:49:34;;;;;;;4.20;2.60;;;;;;;-10.04;61.31;100998.09;5049870;28;20057;-69
2021/12/26 04:52:00;;;;;;;4.07;2.45;;;;;;;-10.08;61.04;101002.19;5045213;28;20048;-69
2021/12/26 04:54:28;;;;;;;4.72;2.08;;;;;;;-9.98;61.11;100994.13;5050254;28;20482;-69
2021/12/26 04:56:54;;;;;;;6.78;1.90;;;;;;;-10.00;61.45;101000.81;5048764;28;20045;-69
2021/12/26 04:59:20;;;;;;;6.65;3.15;;;;;;;-9.98;61.58;100989.06;5049654;28;20045;-69
2021/12/26 05:01:47;;;;;;;10.95;3.85;;;;;;;-9.81;61.55;100978.59;5049543;28;20045;-69
2021/12/26 05:04:13;;;;;;;8.00;3.08;;;;;;;-9.70;61.43;100979.81;5048651;28;20142;-69
2021/12/26 05:06:39;;;;;;;13.10;4.50;;;;;;;-9.68;61.74;100985.81;5048861;28;20076;-69
2021/12/26 05:09:06;;;;;;;6.32;3.38;;;;;;;-9.69;62.00;100986.63;5049733;28;20060;-70
2021/12/26 05:11:36;;;;;;;6.38;3.25;;;;;;;-9.68;62.08;100980.75;5049675;28;20114;-69
2021/12/26 05:14:03;;;;;;;6.40;3.22;;;;;;;-9.68;61.80;100991.72;5049593;28;20056;-69
2021/12/26 05:16:29;;;;;;;10.02;3.22;;;;;;;-9.66;61.48;100982.50;5049462;28;20449;-69
2021/12/26 05:18:55;;;;;;;5.35;2.72;;;;;;;-9.54;60.93;100992.22;5049751;28;20069;-69
2021/12/26 05:21:22;;;;;;;7.32;3.63;;;;;;;-9.68;61.09;100986.66;5043612;28;20048;-69
2021/12/26 05:23:48;;;;;;;6.18;3.72;;;;;;;-9.70;61.58;100983.22;5048811;28;20533;-70
2021/12/26 05:26:15;;;;;;;11.32;4.10;;;;;;;-9.69;61.32;100979.88;5049344;28;20049;-69
2021/12/26 05:28:42;;;;;;;9.02;3.15;;;;;;;-9.91;60.67;100973.22;5049039;28;20551;-69
2021/12/26 05:31:09;;;;;;;7.68;3.15;;;;;;;-9.86;60.63;100974.22;5049102;28;20049;-69
2021/12/26 05:33:35;;;;;;;6.40;3.55;;;;;;;-9.97;60.65;100967.94;5048791;28;20069;-69
2021/12/26 05:36:01;;;;;;;8.30;3.47;;;;;;;-9.77;60.41;100966.06;5048460;28;20080;-70
2021/12/26 05:38:28;;;;;;;7.72;3.58;;;;;;;-9.70;60.69;100965.47;5049082;28;20098;-69
2021/12/26 05:40:55;;;;;;;10.63;3.67;;;;;;;-9.65;61.02;100958.88;5047841;28;20468;-69
2021/12/26 05:43:21;;;;;;;6.00;3.53;;;;;;;-9.74;61.29;100966.16;5048888;28;20093;-69
2021/12/26 05:45:49;;;;;;;12.20;4.40;;;;;;;-9.73;61.45;100965.38;5048974;28;20065;-69
2021/12/26 05:48:16;;;;;;;5.95;3.53;;;;;;;-9.80;61.92;100962.56;5048504;28;20080;-69
2021/12/26 05:50:42;;;;;;;7.63;3.85;;;;;;;-9.86;62.02;100960.69;5048807;28;20075;-69
2021/12/26 05:53:08;;;;;;;10.30;3.60;;;;;;;-9.85;61.62;100957.34;5048195;28;20073;-69
2021/12/26 05:55:35;;;;;;;7.22;3.50;;;;;;;-10.01;60.99;100966.09;5047840;28;20417;-69
2021/12/26 05:58:01;;;;;;;11.30;3.70;;;;;;;-9.93;60.75;100951.13;5048430;28;20061;-69
2021/12/26 06:00:27;;;;;;;5.60;3.40;;;;;;;-10.10;61.08;100957.31;5048400;28;20060;-69
2021/12/26 06:02:55;;;;;;;7.22;3.38;;;;;;;-10.11;60.63;100956.47;5048385;28;20567;-69
2021/12/26 06:05:22;;;;;;;10.25;3.78;;;;;;;-10.12;62.49;100964.88;5048658;28;20417;-69
2021/12/26 06:07:49;;;;;;;8.00;3.45;;;;;;;-10.12;62.09;100975.00;5052098;28;20493;-69
2021/12/26 06:10:16;;;;;;;9.65;4.40;;;;;;;-10.07;62.45;100970.09;5055210;28;20124;-69
2021/12/26 06:12:42;;;;;;;7.85;3.25;;;;;;;-10.21;62.54;100984.00;5055343;28;20049;-69
2021/12/26 06:15:09;;;;;;;7.85;3.78;;;;;;;-10.11;62.34;100983.47;5055559;28;20073;-69
2021/12/26 06:17:36;;;;;;;9.43;4.00;;;;;;;-9.94;61.66;100975.63;5053035;28;20510;-70
2021/12/26 06:20:04;;;;;;;8.50;4.38;;;;;;;-10.03;60.74;100992.22;5053546;28;20073;-70
2021/12/26 06:22:31;;;;;;;13.23;4.43;;;;;;;-10.10;60.63;100987.75;5055143;28;20056;-69
2021/12/26 06:24:57;;;;;;;6.18;3.40;;;;;;;-10.17;60.89;100980.78;5055763;28;20531;-69
2021/12/26 06:27:24;;;;;;;11.98;3.80;;;;;;;-10.22;60.58;100988.22;5054842;28;20481;-69
2021/12/26 06:29:50;;;;;;;12.75;4.20;;;;;;;-10.31;60.95;100985.38;5055068;28;20052;-69
2021/12/26 06:32:16;;;;;;;9.80;3.78;;;;;;;-10.25;60.42;100990.66;5054776;28;20099;-70
2021/12/26 06:34:43;;;;;;;17.05;4.90;;;;;;;-10.30;60.79;100984.53;5055174;28;20037;-69
2021/12/26 06:37:10;;;;;;;8.65;3.22;;;;;;;-10.14;60.27;100979.19;5054250;28;20430;-69
2021/12/26 06:39:37;;;;;;;6.88;3.70;;;;;;;-10.32;60.43;100985.31;5055270;28;20067;-69
2021/12/26 06:42:04;;;;;;;8.60;3.72;;;;;;;-10.28;60.70;100982.06;5054786;28;20099;-69
2021/12/26 06:44:30;;;;;;;8.57;3.63;;;;;;;-10.37;60.19;100982.59;5054756;28;20064;-69
2021/12/26 06:46:56;;;;;;;9.27;3.22;;;;;;;-10.36;61.48;100979.25;5055384;28;20045;-69
2021/12/26 06:49:23;;;;;;;7.00;3.20;;;;;;;-10.47;61.48;100988.16;5047379;28;20098;-69
2021/12/26 06:51:51;;;;;;;8.30;3.55;;;;;;;-11.00;64.89;100994.59;5047209;28;20158;-69
2021/12/26 06:54:19;;;;;;;7.03;4.18;;;;;;;-10.96;65.11;100988.84;5054335;28;20072;-69
2021/12/26 06:56:46;;;;;;;8.35;3.75;;;;;;;-10.87;64.08;100991.75;5054418;28;20044;-69
2021/12/26 06:59:12;;;;;;;8.95;3.10;;;;;;;-10.73;63.23;101001.53;5050773;28;20077;-69
2021/12/26 07:01:38;;;;;;;10.68;3.58;;;;;;;-10.73;62.43;101007.47;5054351;28;20458;-69
2021/12/26 07:04:05;;;;;;;7.35;3.38;;;;;;;-10.83;62.41;101002.00;5054088;28;20072;-69
2021/12/26 07:06:31;;;;;;;9.68;3.40;;;;;;;-10.87;62.34;100999.34;5054577;28;20551;-69
2021/12/26 07:08:58;;;;;;;7.65;3.45;;;;;;;-10.90;63.40;100994.16;5055304;28;20065;-69
2021/12/26 07:11:25;;;;;;;8.02;2.95;;;;;;;-10.79;63.47;100988.66;5054904;28;20077;-69
2021/12/26 07:13:52;;;;;;;6.25;3.35;;;;;;;-10.92;63.85;100985.63;5053660;28;20068;-69
2021/12/26 07:16:18;;;;;;;6.35;3.08;;;;;;;-11.02;65.43;100996.22;5054820;28;20504;-69
2021/12/26 07:18:44;;;;;;;6.72;3.05;;;;;;;-10.86;64.39;100983.31;5052211;28;20072;-69
2021/12/26 07:21:11;;;;;;;9.85;5.15;;;;;;;-10.71;63.66;101010.03;5041405;28;20072;-69
2021/12/26 07:23:37;;;;;;;10.45;4.03;;;;;;;-10.57;62.53;100994.56;5048208;28;20114;-68
2021/12/26 07:26:04;;;;;;;6.85;4.30;;;;;;;-10.42;61.12;100995.09;5049008;28;20087;-69
2021/12/26 07:28:31;;;;;;;8.73;3.80;;;;;;;-10.31;60.79;100997.19;5049206;28;20110;-69
2021/12/26 07:30:58;;;;;;;10.77;4.90;;;;;;;-10.45;60.94;101001.72;5047447;28;20052;-69
2021/12/26 07:33:24;;;;;;;7.93;5.00;;;;;;;-10.50;61.45;100995.66;5049222;28;20052;-69
2021/12/26 07:35:50;;;;;;;8.65;4.15;;;;;;;-10.60;61.85;100999.50;5049639;28;20315;-69
2021/12/26 07:38:18;;;;;;;8.70;4.80;;;;;;;-10.52;61.49;100997.25;5047648;28;20578;-69
2021/12/26 07:40:45;;;;;;;8.85;5.22;;;;;;;-10.54;61.72;101001.41;5048218;28;20191;-69
2021/12/26 07:43:11;;;;;;;15.18;5.75;;;;;;;-10.28;61.84;100997.28;5030772;28;20064;-69
2021/12/26 07:45:39;;;;;;;27.95;10.65;;;;;;;-10.13;60.94;100992.72;5028933;28;20077;-69
2021/12/26 07:48:05;;;;;;;27.95;12.73;;;;;;;-10.17;61.06;101003.59;5028478;28;20497;-69
2021/12/26 07:50:32;;;;;;;47.63;14.32;;;;;;;-10.09;60.69;100997.97;5034404;28;20069;-69
2021/12/26 07:53:04;;;;;;;32.65;10.48;;;;;;;-10.05;61.00;101004.00;5048562;28;20065;-68
2021/12/26 07:55:31;;;;;;;29.50;8.82;;;;;;;-10.01;61.12;101006.69;5048359;28;20413;-68
2021/12/26 07:57:57;;;;;;;25.83;9.55;;;;;;;-9.89;60.99;101003.72;5048156;28;20106;-68
2021/12/26 08:00:24;;;;;;;30.95;10.65;;;;;;;-9.90;61.04;101002.84;5048380;28;20146;-69
2021/12/26 08:02:52;;;;;;;24.10;9.50;;;;;;;-9.90;60.79;101017.19;5049328;28;20068;-69
2021/12/26 08:05:19;;;;;;;21.73;7.85;;;;;;;-9.89;61.32;101024.88;5048605;28;20041;-69
2021/12/26 08:07:45;;;;;;;16.73;5.93;;;;;;;-9.78;61.36;101029.44;5047994;28;20094;-69
2021/12/26 08:10:12;;;;;;;9.75;3.53;;;;;;;-9.80;61.49;101024.34;5047064;28;20076;-69
2021/12/26 08:12:38;;;;;;;10.38;3.10;;;;;;;-9.80;61.87;101028.53;5047372;28;20045;-70
2021/12/26 08:15:06;;;;;;;9.70;3.95;;;;;;;-9.86;61.97;101014.81;5048227;28;20037;-71
2021/12/26 08:17:32;;;;;;;9.27;3.83;;;;;;;-9.77;61.81;101013.41;5040123;28;20114;-70
2021/12/26 08:20:00;;;;;;;7.65;3.53;;;;;;;-9.61;61.84;101019.06;5048059;28;20057;-69
2021/12/26 08:22:27;;;;;;;5.95;2.83;;;;;;;-9.43;61.84;101016.28;5046711;28;20048;-69
2021/12/26 08:24:53;;;;;;;6.97;3.20;;;;;;;-9.28;61.08;101019.31;5044659;28;20122;-69
2021/12/26 08:27:19;;;;;;;9.38;2.72;;;;;;;-9.23;61.64;101011.81;5047584;28;20064;-68
2021/12/26 08:29:46;;;;;;;17.05;3.25;;;;;;;-9.01;61.36;101006.59;5046309;28;20095;-68
2021/12/26 08:32:16;;;;;;;7.50;3.45;;;;;;;-8.94;61.35;100998.34;5041170;28;20623;-68
2021/12/26 08:34:43;;;;;;;7.97;2.83;;;;;;;-8.69;60.61;101003.38;5041495;28;20124;-69
2021/12/26 08:37:12;;;;;;;18.33;5.05;;;;;;;-8.91;61.49;101003.53;5044522;28;20325;-70
2021/12/26 08:39:41;;;;;;;10.93;4.50;;;;;;;-8.84;61.25;101009.66;5046409;28;20118;-70
2021/12/26 08:42:11;;;;;;;11.82;4.65;;;;;;;-8.76;61.93;101008.22;5045033;28;20695;-71
2021/12/26 08:44:38;;;;;;;9.60;4.82;;;;;;;-8.64;61.71;101006.03;5046618;28;20073;-70
2021/12/26 08:47:05;;;;;;;6.80;3.85;;;;;;;-8.62;61.89;101012.91;5045555;28;20575;-69
2021/12/26 08:49:32;;;;;;;9.73;3.90;;;;;;;-8.38;61.44;101007.66;5046530;28;20082;-68
2021/12/26 08:51:59;;;;;;;8.05;3.80;;;;;;;-8.12;61.23;101004.13;5045285;28;20134;-68
2021/12/26 08:54:29;;;;;;;8.45;4.55;;;;;;;-8.20;63.06;101005.59;5044123;28;20455;-69
2021/12/26 08:56:56;;;;;;;12.68;6.97;;;;;;;-8.33;64.14;100995.94;5045705;28;20061;-69
2021/12/26 08:59:24;;;;;;;10.82;5.30;;;;;;;-8.16;63.94;100999.75;5047355;28;20539;-69
2021/12/26 09:01:50;;;;;;;7.55;4.60;;;;;;;-7.95;63.49;100999.50;5043766;28;20127;-69
2021/12/26 09:04:17;;;;;;;8.50;4.53;;;;;;;-7.43;62.24;100991.53;5044907;28;20509;-70
2021/12/26 09:06:43;;;;;;;7.35;4.38;;;;;;;-7.37;61.55;100994.19;5045710;28;20072;-71
2021/12/26 09:09:11;;;;;;;8.48;4.28;;;;;;;-7.27;62.78;100995.28;5042712;28;20050;-70
2021/12/26 09:11:38;;;;;;;12.75;4.82;;;;;;;-7.09;62.96;100991.47;5045827;28;20417;-69
2021/12/26 09:14:05;;;;;;;9.85;5.22;;;;;;;-7.15;63.85;100998.13;5046132;28;20137;-70
2021/12/26 09:16:33;;;;;;;10.70;5.85;;;;;;;-7.08;64.13;100998.31;5044981;28;20068;-70
2021/12/26 09:19:00;;;;;;;8.23;4.50;;;;;;;-6.42;63.62;101000.59;5044980;28;20049;-70
2021/12/26 09:21:27;;;;;;;10.15;4.30;;;;;;;-6.17;62.06;101007.09;5041754;28;20045;-70
2021/12/26 09:23:53;;;;;;;10.57;4.88;;;;;;;-5.74;60.85;101007.03;5045859;28;20052;-70
2021/12/26 09:26:20;;;;;;;6.72;4.78;;;;;;;-4.97;60.01;101007.47;5046457;28;20076;-71
2021/12/26 09:28:47;;;;;;;11.18;4.40;;;;;;;-4.66;58.21;100998.56;5046045;28;20130;-70
2021/12/26 09:31:14;;;;;;;8.68;4.50;;;;;;;-4.45;57.36;100999.69;5044750;28;20115;-69
2021/12/26 09:33:40;;;;;;;9.75;4.72;;;;;;;-3.71;57.84;100997.13;5040829;28;20076;-69
2021/12/26 09:36:07;;;;;;;11.73;5.70;;;;;;;-3.21;55.49;100996.72;5040485;28;20072;-69
2021/12/26 09:38:33;;;;;;;9.30;5.63;;;;;;;-2.92;55.50;100994.41;5045595;28;20130;-69
2021/12/26 09:41:00;;;;;;;9.02;4.97;;;;;;;-2.47;55.00;100994.66;5046046;28;20100;-68
2021/12/26 09:43:27;;;;;;;10.13;5.22;;;;;;;-2.15;53.52;100987.97;5044387;28;20493;-68
2021/12/26 09:45:55;;;;;;;9.70;4.72;;;;;;;-1.70;51.31;100983.81;5047827;28;20129;-69
2021/12/26 09:48:23;;;;;;;8.02;5.03;;;;;;;-1.34;51.55;100976.16;5048021;28;20069;-69
2021/12/26 09:50:49;;;;;;;13.88;6.68;;;;;;;-0.70;48.73;100974.34;5048169;28;20069;-69
2021/12/26 09:53:15;;;;;;;16.17;8.88;;;;;;;-0.79;50.28;100966.66;5047253;28;20148;-69
2021/12/26 09:55:42;;;;;;;17.80;9.90;;;;;;;-0.34;48.95;100962.22;5047622;28;20098;-68
2021/12/26 09:58:08;;;;;;;37.50;18.67;;;;;;;-0.37;50.13;100962.25;5047470;28;20420;-68
2021/12/26 10:00:38;;;;;;;15.35;9.18;;;;;;;-0.60;48.42;100964.91;5046858;28;20072;-68
2021/12/26 10:03:13;;;;;;;16.73;8.82;;;;;;;-0.54;49.61;100960.56;5043221;28;20072;-68
2021/12/26 10:05:57;;;;;;;13.52;7.38;;;;;;;-0.06;49.93;100956.94;5046463;28;20126;-68
2021/12/26 10:08:24;;;;;;;17.27;10.75;;;;;;;-0.08;49.90;100960.41;5046143;28;20040;-69
2021/12/26 10:11:05;;;;;;;15.38;7.65;;;;;;;0.03;50.07;100952.63;5047520;28;20041;-68
2021/12/26 10:13:44;;;;;;;14.70;6.60;;;;;;;-0.01;50.47;100955.22;5045804;28;20558;-68
2021/12/26 10:16:12;;;;;;;10.25;6.78;;;;;;;0.30;48.82;100950.72;5047559;28;20072;-68
2021/12/26 10:18:40;;;;;;;13.25;7.32;;;;;;;0.28;49.63;100944.72;5046719;28;20069;-68
2021/12/26 10:21:32;;;;;;;11.75;5.75;;;;;;;0.52;48.52;100943.66;5042946;28;20055;-68
2021/12/26 10:24:01;;;;;;;9.60;5.70;;;;;;;0.82;49.07;100940.84;5046879;28;20082;-68
2021/12/26 10:26:29;;;;;;;14.73;6.00;;;;;;;0.69;48.46;100939.25;5047209;28;20102;-68
2021/12/26 10:29:07;;;;;;;10.57;6.03;;;;;;;0.82;48.97;100943.44;5048587;28;20118;-68
2021/12/26 10:31:34;;;;;;;16.38;9.75;;;;;;;1.04;48.90;100945.81;5045919;28;20130;-67
2021/12/26 10:34:02;;;;;;;10.93;6.00;;;;;;;1.17;48.10;100947.41;5044389;28;20041;-67
2021/12/26 10:36:28;;;;;;;14.13;7.93;;;;;;;0.30;48.87;100940.38;5048761;28;20045;-67
2021/12/26 10:39:08;;;;;;;17.48;9.25;;;;;;;0.94;49.47;100950.22;5048268;28;20045;-67
2021/12/26 10:41:40;;;;;;;18.63;8.25;;;;;;;1.58;47.38;100940.06;5043845;28;20052;-67
2021/12/26 10:44:06;;;;;;;19.77;9.38;;;;;;;1.45;47.09;100941.06;5042175;28;20073;-67
2021/12/26 10:46:35;;;;;;;15.32;7.95;;;;;;;1.24;46.99;100943.88;5047896;28;20041;-67
2021/12/26 10:49:24;;;;;;;16.88;8.20;;;;;;;0.97;46.32;100942.44;5045659;28;20057;-67
2021/12/26 10:51:50;;;;;;;12.27;7.28;;;;;;;0.98;46.28;100933.81;5040065;28;20106;-67
2021/12/26 10:54:19;;;;;;;12.48;7.07;;;;;;;1.50;45.68;100941.88;5048837;28;20118;-67
2021/12/26 10:57:12;;;;;;;17.48;9.27;;;;;;;1.40;46.98;100935.13;5051349;28;20045;-67
2021/12/26 10:59:40;;;;;;;18.88;9.32;;;;;;;1.86;46.55;100928.50;5051455;28;20045;-67
2021/12/26 11:02:07;;;;;;;28.73;11.32;;;;;;;1.85;46.41;100926.78;5049507;28;20576;-68
2021/12/26 11:04:37;;;;;;;17.67;9.70;;;;;;;1.65;46.00;100933.09;5049347;28;20098;-67
2021/12/26 11:07:08;;;;;;;15.02;7.03;;;;;;;1.13;46.70;100925.94;5047892;28;20144;-67
2021/12/26 11:09:34;;;;;;;15.68;7.25;;;;;;;1.02;48.62;100917.44;5050730;28;20057;-67
2021/12/26 11:12:03;;;;;;;12.43;7.47;;;;;;;1.41;48.03;100908.38;5051563;28;20064;-67
2021/12/26 11:14:29;;;;;;;18.52;9.50;;;;;;;1.65;47.20;100917.59;5039653;28;20119;-66
2021/12/26 11:16:56;;;;;;;15.55;9.80;;;;;;;2.08;47.21;100910.94;5037753;28;20065;-66
2021/12/26 11:19:46;;;;;;;14.27;7.95;;;;;;;1.51;47.42;100916.91;5052046;28;20045;-66
2021/12/26 11:22:13;;;;;;;10.60;6.03;;;;;;;1.53;47.72;100913.41;5047584;28;20690;-66
2021/12/26 11:24:40;;;;;;;11.85;6.53;;;;;;;1.83;46.63;100907.88;5050281;28;20041;-67
2021/12/26 11:27:07;;;;;;;12.48;7.68;;;;;;;1.64;46.49;100908.09;5051561;28;20076;-67